Time,TemperatureF,DewpointF,PressureIn,WindDirection,WindDirectionDegrees,WindSpeedMPH,WindSpeedGustMPH,Humidity,HourlyPrecipIn,Conditions,Clouds,dailyrainin,SoftwareType,DateUTC
2013-01-10 00:00:00,50.3,49.5,30.42,NNE,16,0.0,2.0,97,0.00,,---,0.08,VWS V14.00,2013-01-10 05:00:00,
2013-01-10 00:01:00,50.3,49.5,30.42,NNE,16,0.0,0.0,97,0.00,,---,0.00,VWS V14.00,2013-01-10 05:01:00,
2013-01-10 00:06:00,50.3,49.5,30.42,NNE,16,0.0,1.0,97,0.00,,---,0.00,VWS V14.00,2013-01-10 05:06:00,
2013-01-10 00:10:00,50.5,49.7,30.41,NNE,16,0.0,1.0,97,0.00,,---,0.00,VWS V14.00,2013-01-10 05:10:00,
2013-01-10 00:11:00,50.3,49.5,30.42,NNE,16,0.0,0.0,97,0.00,,---,0.00,VWS V14.00,2013-01-10 05:11:00,
2013-01-10 00:16:00,50.3,49.5,30.41,NNE,16,0.0,0.0,97,0.00,,---,0.00,VWS V14.00,2013-01-10 05:16:00,
2013-01-10 00:20:00,50.4,49.6,30.41,NNE,16,0.0,0.0,97,0.00,,---,0.00,VWS V14.00,2013-01-10 05:20:00,
2013-01-10 00:21:00,50.3,49.5,30.41,NNE,16,0.0,0.0,97,0.00,,---,0.00,VWS V14.00,2013-01-10 05:21:00,
2013-01-10 00:26:00,50.3,49.5,30.42,NNE,16,0.0,1.0,97,0.00,,---,0.00,VWS V14.00,2013-01-10 05:26:00,
2013-01-10 00:30:00,50.4,49.6,30.42,NNE,16,0.0,0.0,97,0.00,,---,0.00,VWS V14.00,2013-01-10 05:30:00,
2013-01-10 00:31:00,50.3,49.5,30.41,NNE,16,0.0,0.0,97,0.00,,---,0.00,VWS V14.00,2013-01-10 05:31:00,
2013-01-10 00:36:00,50.3,49.5,30.41,NNE,16,0.0,0.0,97,0.00,,---,0.00,VWS V14.00,2013-01-10 05:36:00,
2013-01-10 00:40:00,50.5,49.7,30.42,NNE,16,0.0,1.0,97,0.00,,---,0.00,VWS V14.00,2013-01-10 05:40:00,
2013-01-10 00:41:00,50.3,49.5,30.42,NNE,16,0.0,0.0,97,0.00,,---,0.00,VWS V14.00,2013-01-10 05:41:00,
2013-01-10 00:46:00,50.4,49.6,30.41,NNE,16,0.0,1.0,97,0.00,,---,0.00,VWS V14.00,2013-01-10 05:46:00,
2013-01-10 00:50:00,50.5,49.7,30.42,NNE,16,0.0,1.0,97,0.00,,---,0.00,VWS V14.00,2013-01-10 05:50:00,
2013-01-10 00:51:00,50.4,49.6,30.42,NNE,16,1.0,1.0,97,0.00,,---,0.00,VWS V14.00,2013-01-10 05:51:00,
2013-01-10 00:56:00,50.4,49.6,30.42,NNE,16,0.0,1.0,97,0.00,,---,0.00,VWS V14.00,2013-01-10 05:56:00,
2013-01-10 01:00:00,50.5,49.7,30.42,NNE,16,0.0,1.0,97,0.00,,---,0.00,VWS V14.00,2013-01-10 06:00:00,
2013-01-10 01:01:00,50.5,49.7,30.40,NNE,16,0.0,0.0,97,0.00,,---,0.00,VWS V14.00,2013-01-10 06:01:00,
2013-01-10 01:06:00,50.5,49.7,30.41,NNE,16,0.0,0.0,97,0.00,,---,0.00,VWS V14.00,2013-01-10 06:06:00,
2013-01-10 01:10:00,50.5,49.7,30.42,NNE,16,0.0,0.0,97,0.00,,---,0.00,VWS V14.00,2013-01-10 06:10:00,
2013-01-10 01:11:00,50.5,49.7,30.41,NNE,16,0.0,0.0,97,0.00,,---,0.00,VWS V14.00,2013-01-10 06:11:00,
2013-01-10 01:16:00,50.5,49.7,30.41,NNE,16,0.0,0.0,97,0.00,,---,0.00,VWS V14.00,2013-01-10 06:16:00,
2013-01-10 01:20:00,50.5,49.7,30.42,NNE,16,0.0,0.0,97,0.00,,---,0.00,VWS V14.00,2013-01-10 06:20:00,
2013-01-10 01:21:00,50.4,49.6,30.41,NNE,16,0.0,0.0,97,0.00,,---,0.00,VWS V14.00,2013-01-10 06:21:00,
2013-01-10 01:26:00,50.4,49.6,30.42,NNE,16,0.0,0.0,97,0.00,,---,0.00,VWS V14.00,2013-01-10 06:26:00,
2013-01-10 01:30:00,50.5,49.7,30.42,NNE,16,0.0,1.0,97,0.00,,---,0.00,VWS V14.00,2013-01-10 06:30:00,
2013-01-10 01:31:00,50.4,49.6,30.42,NNE,16,0.0,0.0,97,0.00,,---,0.00,VWS V14.00,2013-01-10 06:31:00,
2013-01-10 01:36:00,50.5,49.7,30.42,NNE,16,0.0,0.0,97,0.00,,---,0.00,VWS V14.00,2013-01-10 06:36:00,
2013-01-10 01:40:00,50.4,49.3,30.42,NNE,16,0.0,0.0,96,0.00,,---,0.00,VWS V14.00,2013-01-10 06:40:00,
2013-01-10 01:41:00,50.5,49.7,30.42,NNE,16,1.0,1.0,97,0.00,,---,0.00,VWS V14.00,2013-01-10 06:41:00,
2013-01-10 01:46:00,50.5,49.7,30.42,NNE,16,0.0,1.0,97,0.00,,---,0.00,VWS V14.00,2013-01-10 06:46:00,
2013-01-10 01:50:00,50.3,49.2,30.42,NNE,16,0.0,1.0,96,0.00,,---,0.00,VWS V14.00,2013-01-10 06:50:00,
2013-01-10 01:51:00,50.5,49.7,30.42,NNE,16,0.0,0.0,97,0.00,,---,0.00,VWS V14.00,2013-01-10 06:51:00,
2013-01-10 01:56:00,50.5,49.7,30.42,NNE,16,0.0,0.0,97,0.00,,---,0.00,VWS V14.00,2013-01-10 06:56:00,
2013-01-10 02:00:00,50.3,49.2,30.42,NNE,16,0.0,1.0,96,0.00,,---,0.00,VWS V14.00,2013-01-10 07:00:00,
2013-01-10 02:01:00,50.5,49.7,30.42,NNE,16,0.0,1.0,97,0.00,,---,0.00,VWS V14.00,2013-01-10 07:01:00,
2013-01-10 02:06:00,50.5,49.7,30.42,NNE,16,0.0,0.0,97,0.00,,---,0.00,VWS V14.00,2013-01-10 07:06:00,
2013-01-10 02:10:00,50.2,49.1,30.42,NNE,16,0.0,1.0,96,0.00,,---,0.00,VWS V14.00,2013-01-10 07:10:00,
2013-01-10 02:11:00,50.5,49.7,30.42,NNE,16,0.0,0.0,97,0.00,,---,0.00,VWS V14.00,2013-01-10 07:11:00,
2013-01-10 02:16:00,50.5,49.7,30.42,NNE,16,0.0,0.0,97,0.00,,---,0.00,VWS V14.00,2013-01-10 07:16:00,
2013-01-10 02:20:00,50.2,49.1,30.42,NNE,16,0.0,2.0,96,0.00,,---,0.00,VWS V14.00,2013-01-10 07:20:00,
2013-01-10 02:21:00,50.5,49.7,30.42,NNE,16,0.0,0.0,97,0.00,,---,0.00,VWS V14.00,2013-01-10 07:21:00,
2013-01-10 02:26:00,50.5,49.7,30.42,NNE,16,0.0,1.0,97,0.00,,---,0.00,VWS V14.00,2013-01-10 07:26:00,
2013-01-10 02:30:00,50.2,49.1,30.41,NNE,16,0.0,0.0,96,0.00,,---,0.00,VWS V14.00,2013-01-10 07:30:00,
2013-01-10 02:31:00,50.5,49.7,30.42,NNE,16,0.0,0.0,97,0.00,,---,0.00,VWS V14.00,2013-01-10 07:31:00,
2013-01-10 02:36:00,50.5,49.7,30.42,NNE,16,0.0,0.0,97,0.00,,---,0.00,VWS V14.00,2013-01-10 07:36:00,
2013-01-10 02:40:00,50.1,49.0,30.41,NNE,16,0.0,2.0,96,0.00,,---,0.00,VWS V14.00,2013-01-10 07:40:00,
2013-01-10 02:41:00,50.4,49.3,30.42,NNE,16,0.0,0.0,96,0.00,,---,0.00,VWS V14.00,2013-01-10 07:41:00,
2013-01-10 02:46:00,50.3,49.2,30.42,NNE,16,0.0,1.0,96,0.00,,---,0.00,VWS V14.00,2013-01-10 07:46:00,
2013-01-10 02:50:00,50.1,49.0,30.41,NNE,16,0.0,0.0,96,0.00,,---,0.00,VWS V14.00,2013-01-10 07:50:00,
2013-01-10 02:51:00,50.3,49.2,30.42,NNE,16,1.0,1.0,96,0.00,,---,0.00,VWS V14.00,2013-01-10 07:51:00,
2013-01-10 02:56:00,50.3,49.2,30.42,NNE,16,0.0,1.0,96,0.00,,---,0.00,VWS V14.00,2013-01-10 07:56:00,
2013-01-10 03:00:00,50.1,49.0,30.41,NNE,16,0.0,0.0,96,0.00,,---,0.00,VWS V14.00,2013-01-10 08:00:00,
2013-01-10 03:01:00,50.3,49.2,30.42,NNE,16,0.0,1.0,96,0.00,,---,0.00,VWS V14.00,2013-01-10 08:01:00,
2013-01-10 03:06:00,50.2,49.1,30.42,NNE,16,0.0,1.0,96,0.00,,---,0.00,VWS V14.00,2013-01-10 08:06:00,
2013-01-10 03:10:00,50.2,49.1,30.41,NNE,16,0.0,0.0,96,0.00,,---,0.00,VWS V14.00,2013-01-10 08:10:00,
2013-01-10 03:11:00,50.2,49.1,30.42,NNE,16,2.0,2.0,96,0.00,,---,0.00,VWS V14.00,2013-01-10 08:11:00,
2013-01-10 03:16:00,50.2,49.1,30.42,NNE,16,0.0,2.0,96,0.00,,---,0.00,VWS V14.00,2013-01-10 08:16:00,
2013-01-10 03:20:00,50.2,49.1,30.40,NNE,16,0.0,0.0,96,0.00,,---,0.00,VWS V14.00,2013-01-10 08:20:00,
2013-01-10 03:21:00,50.2,49.1,30.41,NNE,16,0.0,0.0,96,0.00,,---,0.00,VWS V14.00,2013-01-10 08:21:00,
2013-01-10 03:26:00,50.2,49.1,30.41,NNE,16,0.0,0.0,96,0.00,,---,0.00,VWS V14.00,2013-01-10 08:26:00,
2013-01-10 03:30:00,50.2,49.1,30.40,NNE,16,0.0,0.0,96,0.00,,---,0.00,VWS V14.00,2013-01-10 08:30:00,
2013-01-10 03:31:00,50.2,49.1,30.41,NNE,16,0.0,0.0,96,0.00,,---,0.00,VWS V14.00,2013-01-10 08:31:00,
2013-01-10 03:36:00,50.1,49.0,30.41,NNE,16,0.0,0.0,96,0.00,,---,0.00,VWS V14.00,2013-01-10 08:36:00,
2013-01-10 03:40:00,50.2,49.1,30.39,NNE,16,0.0,0.0,96,0.00,,---,0.00,VWS V14.00,2013-01-10 08:40:00,
2013-01-10 03:41:00,50.1,49.0,30.41,NNE,16,0.0,0.0,96,0.00,,---,0.00,VWS V14.00,2013-01-10 08:41:00,
2013-01-10 03:46:00,50.1,49.0,30.41,NNE,16,0.0,0.0,96,0.00,,---,0.00,VWS V14.00,2013-01-10 08:46:00,
2013-01-10 03:50:00,50.2,49.1,30.39,NNE,16,0.0,2.0,96,0.00,,---,0.00,VWS V14.00,2013-01-10 08:50:00,
2013-01-10 03:51:00,50.2,49.1,30.41,NNE,16,0.0,0.0,96,0.00,,---,0.00,VWS V14.00,2013-01-10 08:51:00,
2013-01-10 03:56:00,50.1,49.0,30.41,NNE,16,0.0,0.0,96,0.00,,---,0.00,VWS V14.00,2013-01-10 08:56:00,
2013-01-10 04:00:00,50.2,49.1,30.39,NNE,16,0.0,0.0,96,0.00,,---,0.00,VWS V14.00,2013-01-10 09:00:00,
2013-01-10 04:01:00,50.1,49.0,30.41,NNE,16,0.0,0.0,96,0.00,,---,0.00,VWS V14.00,2013-01-10 09:01:00,
2013-01-10 04:06:00,50.1,49.0,30.41,NNE,16,0.0,0.0,96,0.00,,---,0.00,VWS V14.00,2013-01-10 09:06:00,
2013-01-10 04:10:00,50.2,49.1,30.39,NNE,16,0.0,0.0,96,0.00,,---,0.00,VWS V14.00,2013-01-10 09:10:00,
2013-01-10 04:11:00,50.2,49.1,30.41,NNE,16,0.0,0.0,96,0.00,,---,0.00,VWS V14.00,2013-01-10 09:11:00,
2013-01-10 04:16:00,50.2,49.1,30.41,NNE,16,0.0,0.0,96,0.00,,---,0.00,VWS V14.00,2013-01-10 09:16:00,
2013-01-10 04:20:00,50.2,49.1,30.39,NNE,16,0.0,1.0,96,0.00,,---,0.00,VWS V14.00,2013-01-10 09:20:00,
2013-01-10 04:21:00,50.2,49.1,30.40,NNE,16,0.0,0.0,96,0.00,,---,0.00,VWS V14.00,2013-01-10 09:21:00,
2013-01-10 04:26:00,50.1,49.0,30.40,NNE,16,0.0,0.0,96,0.00,,---,0.00,VWS V14.00,2013-01-10 09:26:00,
2013-01-10 04:30:00,50.3,49.2,30.39,NNE,16,0.0,0.0,96,0.00,,---,0.00,VWS V14.00,2013-01-10 09:30:00,
2013-01-10 04:31:00,50.2,49.1,30.39,NNE,16,0.0,0.0,96,0.00,,---,0.00,VWS V14.00,2013-01-10 09:31:00,
2013-01-10 04:36:00,50.2,49.1,30.39,NNE,16,0.0,0.0,96,0.00,,---,0.00,VWS V14.00,2013-01-10 09:36:00,
2013-01-10 04:40:00,50.2,49.1,30.39,NNE,16,0.0,1.0,96,0.00,,---,0.00,VWS V14.00,2013-01-10 09:40:00,
2013-01-10 04:41:00,50.1,49.0,30.39,NNE,16,0.0,0.0,96,0.00,,---,0.00,VWS V14.00,2013-01-10 09:41:00,
2013-01-10 04:46:00,50.2,49.1,30.39,NNE,16,0.0,2.0,96,0.00,,---,0.00,VWS V14.00,2013-01-10 09:46:00,
2013-01-10 04:50:00,50.2,49.1,30.38,NNE,16,0.0,1.0,96,0.00,,---,0.00,VWS V14.00,2013-01-10 09:50:00,
2013-01-10 04:51:00,50.2,49.1,30.39,NNE,16,0.0,0.0,96,0.00,,---,0.00,VWS V14.00,2013-01-10 09:51:00,
2013-01-10 04:56:00,50.2,49.1,30.39,NNE,16,0.0,0.0,96,0.00,,---,0.00,VWS V14.00,2013-01-10 09:56:00,
2013-01-10 05:00:00,50.2,49.1,30.38,NNE,16,0.0,0.0,96,0.00,,---,0.00,VWS V14.00,2013-01-10 10:00:00,
2013-01-10 05:01:00,50.2,49.1,30.39,NNE,16,0.0,0.0,96,0.00,,---,0.00,VWS V14.00,2013-01-10 10:01:00,
2013-01-10 05:06:00,50.2,49.1,30.39,NNE,16,0.0,0.0,96,0.00,,---,0.00,VWS V14.00,2013-01-10 10:06:00,
2013-01-10 05:10:00,50.2,49.1,30.38,NNE,16,0.0,0.0,96,0.00,,---,0.00,VWS V14.00,2013-01-10 10:10:00,
2013-01-10 05:11:00,50.2,49.1,30.39,NNE,16,0.0,0.0,96,0.00,,---,0.00,VWS V14.00,2013-01-10 10:11:00,
2013-01-10 05:16:00,50.3,49.2,30.39,NNE,16,0.0,0.0,96,0.00,,---,0.00,VWS V14.00,2013-01-10 10:16:00,
2013-01-10 05:20:00,50.1,49.0,30.38,NNE,16,0.0,0.0,96,0.00,,---,0.00,VWS V14.00,2013-01-10 10:20:00,
2013-01-10 05:21:00,50.2,49.1,30.39,NNE,16,0.0,0.0,96,0.00,,---,0.00,VWS V14.00,2013-01-10 10:21:00,
2013-01-10 05:26:00,50.3,49.2,30.39,NNE,16,0.0,0.0,96,0.00,,---,0.00,VWS V14.00,2013-01-10 10:26:00,
2013-01-10 05:30:00,50.2,49.1,30.39,NNE,16,0.0,0.0,96,0.00,,---,0.00,VWS V14.00,2013-01-10 10:30:00,
2013-01-10 05:31:00,50.3,49.2,30.39,NNE,16,0.0,0.0,96,0.00,,---,0.00,VWS V14.00,2013-01-10 10:31:00,
2013-01-10 05:36:00,50.2,49.1,30.39,NNE,16,0.0,1.0,96,0.00,,---,0.00,VWS V14.00,2013-01-10 10:36:00,
2013-01-10 05:40:00,50.2,49.1,30.39,NNE,16,0.0,0.0,96,0.00,,---,0.00,VWS V14.00,2013-01-10 10:40:00,
2013-01-10 05:41:00,50.2,49.1,30.39,NNE,16,0.0,0.0,96,0.00,,---,0.00,VWS V14.00,2013-01-10 10:41:00,
2013-01-10 05:46:00,50.2,49.1,30.38,NNE,16,0.0,1.0,96,0.00,,---,0.00,VWS V14.00,2013-01-10 10:46:00,
2013-01-10 05:50:00,50.3,49.2,30.39,NNE,16,0.0,0.0,96,0.00,,---,0.00,VWS V14.00,2013-01-10 10:50:00,
2013-01-10 05:51:00,50.2,49.1,30.38,NNE,16,0.0,0.0,96,0.00,,---,0.00,VWS V14.00,2013-01-10 10:51:00,
2013-01-10 05:56:00,50.2,49.1,30.38,NNE,16,0.0,0.0,96,0.00,,---,0.00,VWS V14.00,2013-01-10 10:56:00,
2013-01-10 06:00:00,50.3,49.2,30.39,NNE,16,0.0,0.0,96,0.00,,---,0.01,VWS V14.00,2013-01-10 11:00:00,
2013-01-10 06:01:00,50.2,49.1,30.38,NNE,16,0.0,0.0,96,0.00,,---,0.00,VWS V14.00,2013-01-10 11:01:00,
2013-01-10 06:06:00,50.2,49.1,30.38,NNE,16,0.0,0.0,96,0.00,,---,0.00,VWS V14.00,2013-01-10 11:06:00,
2013-01-10 06:10:00,50.2,49.1,30.39,NNE,16,0.0,0.0,96,0.00,,---,0.01,VWS V14.00,2013-01-10 11:10:00,
2013-01-10 06:11:00,50.2,49.1,30.38,NNE,16,0.0,0.0,96,0.00,,---,0.00,VWS V14.00,2013-01-10 11:11:00,
2013-01-10 06:16:00,50.1,49.0,30.38,NNE,16,0.0,0.0,96,0.00,,---,0.00,VWS V14.00,2013-01-10 11:16:00,
2013-01-10 06:20:00,50.2,49.1,30.38,NNE,16,0.0,0.0,96,0.00,,---,0.01,VWS V14.00,2013-01-10 11:20:00,
2013-01-10 06:21:00,50.2,49.1,30.38,NNE,16,0.0,0.0,96,0.00,,---,0.00,VWS V14.00,2013-01-10 11:21:00,
2013-01-10 06:26:00,50.2,49.1,30.38,NNE,16,0.0,0.0,96,0.00,,---,0.00,VWS V14.00,2013-01-10 11:26:00,
2013-01-10 06:30:00,50.1,49.0,30.38,NNE,16,0.0,0.0,96,0.00,,---,0.01,VWS V14.00,2013-01-10 11:30:00,
2013-01-10 06:31:00,50.2,49.1,30.39,NNE,16,0.0,0.0,96,0.00,,---,0.00,VWS V14.00,2013-01-10 11:31:00,
2013-01-10 06:36:00,50.2,49.1,30.38,NNE,16,0.0,0.0,96,0.00,,---,0.00,VWS V14.00,2013-01-10 11:36:00,
2013-01-10 06:40:00,50.0,48.9,30.39,NNE,16,0.0,0.0,96,0.00,,---,0.01,VWS V14.00,2013-01-10 11:40:00,
2013-01-10 06:41:00,50.2,49.1,30.39,NNE,16,0.0,0.0,96,0.00,,---,0.00,VWS V14.00,2013-01-10 11:41:00,
2013-01-10 06:46:00,50.3,49.2,30.39,NNE,16,0.0,0.0,96,0.00,,---,0.00,VWS V14.00,2013-01-10 11:46:00,
2013-01-10 06:50:00,50.0,48.9,30.39,NNE,16,0.0,0.0,96,0.00,,---,0.01,VWS V14.00,2013-01-10 11:50:00,
2013-01-10 06:51:00,50.2,49.1,30.39,NNE,16,0.0,0.0,96,0.00,,---,0.00,VWS V14.00,2013-01-10 11:51:00,
2013-01-10 06:56:00,50.3,49.2,30.39,NNE,16,0.0,0.0,96,0.00,,---,0.00,VWS V14.00,2013-01-10 11:56:00,
2013-01-10 07:00:00,50.0,48.9,30.39,NNE,16,0.0,0.0,96,0.00,,---,0.01,VWS V14.00,2013-01-10 12:00:00,
2013-01-10 07:01:00,50.3,49.2,30.39,NNE,16,0.0,0.0,96,0.00,,---,0.01,VWS V14.00,2013-01-10 12:01:00,
2013-01-10 07:06:00,50.3,49.2,30.39,NNE,16,0.0,0.0,96,0.00,,---,0.01,VWS V14.00,2013-01-10 12:06:00,
2013-01-10 07:10:00,50.0,49.2,30.38,NNE,16,0.0,0.0,97,0.00,,---,0.01,VWS V14.00,2013-01-10 12:10:00,
2013-01-10 07:11:00,50.2,49.1,30.39,NNE,16,0.0,0.0,96,0.00,,---,0.01,VWS V14.00,2013-01-10 12:11:00,
2013-01-10 07:16:00,50.2,49.1,30.39,NNE,16,0.0,0.0,96,0.00,,---,0.01,VWS V14.00,2013-01-10 12:16:00,
2013-01-10 07:20:00,50.1,49.3,30.39,NNE,16,0.0,1.0,97,0.00,,---,0.01,VWS V14.00,2013-01-10 12:20:00,
2013-01-10 07:21:00,50.2,49.1,30.38,NNE,16,0.0,0.0,96,0.00,,---,0.01,VWS V14.00,2013-01-10 12:21:00,
2013-01-10 07:26:00,50.1,49.0,30.38,NNE,16,0.0,0.0,96,0.00,,---,0.01,VWS V14.00,2013-01-10 12:26:00,
2013-01-10 07:30:00,50.1,49.3,30.39,NNE,16,1.0,2.0,97,0.00,,---,0.01,VWS V14.00,2013-01-10 12:30:00,
2013-01-10 07:31:00,50.1,49.0,30.38,NNE,16,0.0,0.0,96,0.00,,---,0.01,VWS V14.00,2013-01-10 12:31:00,
2013-01-10 07:36:00,50.1,49.0,30.38,NNE,16,0.0,0.0,96,0.00,,---,0.01,VWS V14.00,2013-01-10 12:36:00,
2013-01-10 07:40:00,50.2,49.4,30.39,NNE,16,0.0,1.0,97,0.00,,---,0.01,VWS V14.00,2013-01-10 12:40:00,
2013-01-10 07:41:00,50.0,48.9,30.39,NNE,16,0.0,0.0,96,0.00,,---,0.01,VWS V14.00,2013-01-10 12:41:00,
2013-01-10 07:46:00,50.0,48.9,30.38,NNE,16,0.0,0.0,96,0.00,,---,0.01,VWS V14.00,2013-01-10 12:46:00,
2013-01-10 07:50:00,50.3,49.5,30.39,NNE,16,0.0,0.0,97,0.00,,---,0.01,VWS V14.00,2013-01-10 12:50:00,
2013-01-10 07:51:00,50.0,48.9,30.39,NNE,16,0.0,0.0,96,0.00,,---,0.01,VWS V14.00,2013-01-10 12:51:00,
2013-01-10 07:56:00,50.0,48.9,30.38,NNE,16,0.0,0.0,96,0.00,,---,0.01,VWS V14.00,2013-01-10 12:56:00,
2013-01-10 08:00:00,50.4,49.6,30.39,NNE,16,0.0,0.0,97,0.00,,---,0.01,VWS V14.00,2013-01-10 13:00:00,
2013-01-10 08:01:00,50.0,48.9,30.39,NNE,16,0.0,0.0,96,0.00,,---,0.01,VWS V14.00,2013-01-10 13:01:00,
2013-01-10 08:06:00,50.0,49.2,30.39,NNE,16,0.0,0.0,97,0.00,,---,0.01,VWS V14.00,2013-01-10 13:06:00,
2013-01-10 08:10:00,50.6,49.8,30.39,NNE,16,0.0,0.0,97,0.00,,---,0.01,VWS V14.00,2013-01-10 13:10:00,
2013-01-10 08:11:00,50.0,49.2,30.38,NNE,16,0.0,0.0,97,0.00,,---,0.01,VWS V14.00,2013-01-10 13:11:00,
2013-01-10 08:16:00,50.1,49.3,30.38,NNE,16,0.0,1.0,97,0.00,,---,0.01,VWS V14.00,2013-01-10 13:16:00,
2013-01-10 08:20:00,50.8,50.0,30.40,NNE,16,0.0,0.0,97,0.00,,---,0.01,VWS V14.00,2013-01-10 13:20:00,
2013-01-10 08:21:00,50.1,49.3,30.39,NNE,16,0.0,0.0,97,0.00,,---,0.01,VWS V14.00,2013-01-10 13:21:00,
2013-01-10 08:26:00,50.1,49.3,30.39,NNE,16,0.0,0.0,97,0.00,,---,0.01,VWS V14.00,2013-01-10 13:26:00,
2013-01-10 08:30:00,50.9,49.8,30.40,NNE,16,0.0,0.0,96,0.00,,---,0.01,VWS V14.00,2013-01-10 13:30:00,
2013-01-10 08:31:00,50.1,49.3,30.39,NNE,16,0.0,1.0,97,0.00,,---,0.01,VWS V14.00,2013-01-10 13:31:00,
2013-01-10 08:36:00,50.2,49.4,30.39,NNE,16,0.0,1.0,97,0.00,,---,0.01,VWS V14.00,2013-01-10 13:36:00,
2013-01-10 08:40:00,51.1,50.0,30.40,NNE,14,0.0,2.0,96,0.00,,---,0.01,VWS V14.00,2013-01-10 13:40:00,
2013-01-10 08:41:00,50.2,49.4,30.39,NNE,16,0.0,0.0,97,0.00,,---,0.01,VWS V14.00,2013-01-10 13:41:00,
2013-01-10 08:46:00,50.3,49.5,30.39,NNE,16,0.0,0.0,97,0.00,,---,0.01,VWS V14.00,2013-01-10 13:46:00,
2013-01-10 08:50:00,51.2,50.1,30.39,NNE,14,1.0,3.0,96,0.00,,---,0.01,VWS V14.00,2013-01-10 13:50:00,
2013-01-10 08:51:00,50.3,49.5,30.39,NNE,16,0.0,0.0,97,0.00,,---,0.01,VWS V14.00,2013-01-10 13:51:00,
2013-01-10 08:56:00,50.4,49.6,30.39,NNE,16,0.0,0.0,97,0.00,,---,0.01,VWS V14.00,2013-01-10 13:56:00,
2013-01-10 09:00:00,51.4,50.0,30.41,North,349,0.0,4.0,95,0.00,,---,0.01,VWS V14.00,2013-01-10 14:00:00,
2013-01-10 09:01:00,50.4,49.6,30.39,NNE,16,0.0,0.0,97,0.00,,---,0.01,VWS V14.00,2013-01-10 14:01:00,
2013-01-10 09:06:00,50.5,49.7,30.39,NNE,16,0.0,0.0,97,0.00,,---,0.01,VWS V14.00,2013-01-10 14:06:00,
2013-01-10 09:10:00,51.5,50.4,30.40,North,349,0.0,1.0,96,0.00,,---,0.01,VWS V14.00,2013-01-10 14:10:00,
2013-01-10 09:11:00,50.6,49.8,30.39,NNE,16,0.0,0.0,97,0.00,,---,0.01,VWS V14.00,2013-01-10 14:11:00,
2013-01-10 09:16:00,50.7,49.9,30.39,NNE,16,0.0,0.0,97,0.00,,---,0.01,VWS V14.00,2013-01-10 14:16:00,
2013-01-10 09:20:00,51.8,50.7,30.41,North,349,0.0,2.0,96,0.00,,---,0.01,VWS V14.00,2013-01-10 14:20:00,
2013-01-10 09:21:00,50.8,50.0,30.40,NNE,16,0.0,0.0,97,0.00,,---,0.01,VWS V14.00,2013-01-10 14:21:00,
2013-01-10 09:26:00,50.9,49.8,30.40,NNE,16,0.0,0.0,96,0.00,,---,0.01,VWS V14.00,2013-01-10 14:26:00,
2013-01-10 09:30:00,52.0,50.6,30.41,North,349,0.0,1.0,95,0.00,,---,0.01,VWS V14.00,2013-01-10 14:30:00,
2013-01-10 09:31:00,51.0,49.9,30.40,NNE,16,0.0,0.0,96,0.00,,---,0.01,VWS V14.00,2013-01-10 14:31:00,
2013-01-10 09:36:00,51.0,49.9,30.40,NNE,14,0.0,2.0,96,0.00,,---,0.01,VWS V14.00,2013-01-10 14:36:00,
2013-01-10 09:40:00,52.2,50.8,30.41,North,349,0.0,0.0,95,0.00,,---,0.01,VWS V14.00,2013-01-10 14:40:00,
2013-01-10 09:41:00,51.1,50.0,30.40,NNE,14,0.0,0.0,96,0.00,,---,0.01,VWS V14.00,2013-01-10 14:41:00,
2013-01-10 09:50:00,52.4,51.0,30.40,North,349,0.0,2.0,95,0.00,,---,0.01,VWS V14.00,2013-01-10 14:50:00,
2013-01-10 10:00:00,52.5,50.8,30.40,North,349,0.0,2.0,94,0.00,,---,0.01,VWS V14.00,2013-01-10 15:00:00,
2013-01-10 10:10:00,52.7,51.0,30.40,North,349,0.0,0.0,94,0.00,,---,0.01,VWS V14.00,2013-01-10 15:10:00,
2013-01-10 10:20:00,53.0,51.3,30.40,North,349,0.0,2.0,94,0.00,,---,0.01,VWS V14.00,2013-01-10 15:20:00,
2013-01-10 10:30:00,53.2,51.5,30.40,North,349,0.0,1.0,94,0.00,,---,0.01,VWS V14.00,2013-01-10 15:30:00,
2013-01-10 10:40:00,53.4,51.4,30.39,North,349,0.0,1.0,93,0.00,,---,0.01,VWS V14.00,2013-01-10 15:40:00,
2013-01-10 10:50:00,53.7,51.7,30.39,North,349,0.0,1.0,93,0.00,,---,0.01,VWS V14.00,2013-01-10 15:50:00,
2013-01-10 11:00:00,54.0,51.7,30.38,North,349,0.0,2.0,92,0.00,,---,0.01,VWS V14.00,2013-01-10 16:00:00,
2013-01-10 11:10:00,54.2,51.9,30.37,North,349,0.0,1.0,92,0.00,,---,0.01,VWS V14.00,2013-01-10 16:10:00,
2013-01-10 11:20:00,54.5,52.5,30.35,North,349,0.0,1.0,93,0.00,,---,0.01,VWS V14.00,2013-01-10 16:20:00,
2013-01-10 11:30:00,54.7,52.4,30.35,North,349,0.0,0.0,92,0.00,,---,0.01,VWS V14.00,2013-01-10 16:30:00,
2013-01-10 11:40:00,55.0,52.7,30.34,North,349,0.0,1.0,92,0.00,,---,0.01,VWS V14.00,2013-01-10 16:40:00,
2013-01-10 11:50:00,55.2,52.9,30.34,North,349,0.0,1.0,92,0.00,,---,0.01,VWS V14.00,2013-01-10 16:50:00,
2013-01-10 12:00:00,55.5,53.2,30.34,North,349,0.0,0.0,92,0.00,,---,0.01,VWS V14.00,2013-01-10 17:00:00,
2013-01-10 12:10:00,55.7,53.4,30.34,North,349,0.0,0.0,92,0.00,,---,0.01,VWS V14.00,2013-01-10 17:10:00,
2013-01-10 12:20:00,56.2,53.9,30.33,North,349,0.0,1.0,92,0.00,,---,0.01,VWS V14.00,2013-01-10 17:20:00,
2013-01-10 12:30:00,56.8,54.5,30.32,North,349,0.0,1.0,92,0.00,,---,0.01,VWS V14.00,2013-01-10 17:30:00,
2013-01-10 12:40:00,57.5,54.9,30.32,North,5,0.0,2.0,91,0.00,,---,0.01,VWS V14.00,2013-01-10 17:40:00,
2013-01-10 12:50:00,58.1,55.2,30.32,SE,138,0.0,2.0,90,0.00,,---,0.01,VWS V14.00,2013-01-10 17:50:00,
2013-01-10 13:00:00,58.6,55.7,30.32,SE,138,0.0,1.0,90,0.00,,---,0.01,VWS V14.00,2013-01-10 18:00:00,
2013-01-10 13:10:00,59.2,55.7,30.31,SE,138,0.0,1.0,88,0.00,,---,0.01,VWS V14.00,2013-01-10 18:10:00,
2013-01-10 13:20:00,59.8,55.9,30.31,SE,138,0.0,1.0,87,0.00,,---,0.01,VWS V14.00,2013-01-10 18:20:00,
2013-01-10 13:30:00,60.4,56.5,30.31,SE,138,0.0,1.0,87,0.00,,---,0.01,VWS V14.00,2013-01-10 18:30:00,
2013-01-10 13:40:00,61.2,57.3,30.30,SE,138,0.0,2.0,87,0.00,,---,0.01,VWS V14.00,2013-01-10 18:40:00,
2013-01-10 13:50:00,62.1,57.5,30.29,South,186,0.0,4.0,85,0.00,,---,0.01,VWS V14.00,2013-01-10 18:50:00,
2013-01-10 14:00:00,62.3,57.7,30.29,South,177,1.0,4.0,85,0.00,,---,0.01,VWS V14.00,2013-01-10 19:00:00,
2013-01-10 14:10:00,62.7,57.8,30.30,SSW,204,0.0,4.0,84,0.00,,---,0.01,VWS V14.00,2013-01-10 19:10:00,
2013-01-10 14:20:00,63.2,58.0,30.29,SSW,196,1.0,4.0,83,0.00,,---,0.01,VWS V14.00,2013-01-10 19:20:00,
2013-01-10 14:30:00,63.4,58.2,30.29,SSW,200,2.0,4.0,83,0.00,,---,0.01,VWS V14.00,2013-01-10 19:30:00,
2013-01-10 14:40:00,63.6,58.7,30.30,South,169,0.0,4.0,84,0.00,,---,0.01,VWS V14.00,2013-01-10 19:40:00,
2013-01-10 14:50:00,63.6,58.7,30.30,South,169,0.0,2.0,84,0.00,,---,0.01,VWS V14.00,2013-01-10 19:50:00,
2013-01-10 15:00:00,63.6,58.7,30.30,SSE,155,0.0,3.0,84,0.00,,---,0.01,VWS V14.00,2013-01-10 20:00:00,
2013-01-10 15:10:00,63.7,58.8,30.30,SSE,151,0.0,3.0,84,0.00,,---,0.01,VWS V14.00,2013-01-10 20:10:00,
2013-01-10 15:20:00,63.7,58.8,30.29,SSE,151,0.0,1.0,84,0.00,,---,0.01,VWS V14.00,2013-01-10 20:20:00,
2013-01-10 15:30:00,63.8,58.9,30.29,SSE,151,0.0,0.0,84,0.00,,---,0.01,VWS V14.00,2013-01-10 20:30:00,
2013-01-10 15:40:00,63.9,59.0,30.28,SSE,148,0.0,1.0,84,0.00,,---,0.01,VWS V14.00,2013-01-10 20:40:00,
2013-01-10 15:50:00,64.0,58.7,30.27,SSE,148,0.0,1.0,83,0.00,,---,0.01,VWS V14.00,2013-01-10 20:50:00,
2013-01-10 16:00:00,64.1,57.8,30.27,South,180,0.0,3.0,80,0.00,,---,0.01,VWS V14.00,2013-01-10 21:00:00,
2013-01-10 16:10:00,64.3,57.3,30.27,South,180,0.0,2.0,78,0.00,,---,0.01,VWS V14.00,2013-01-10 21:10:00,
2013-01-10 16:20:00,64.3,56.9,30.27,South,180,0.0,1.0,77,0.00,,---,0.01,VWS V14.00,2013-01-10 21:20:00,
2013-01-10 16:30:00,64.1,57.5,30.27,South,180,0.0,2.0,79,0.00,,---,0.01,VWS V14.00,2013-01-10 21:30:00,
2013-01-10 16:40:00,63.6,57.0,30.27,South,180,0.0,1.0,79,0.00,,---,0.01,VWS V14.00,2013-01-10 21:40:00,
2013-01-10 16:50:00,63.2,56.9,30.27,South,180,0.0,0.0,80,0.00,,---,0.01,VWS V14.00,2013-01-10 21:50:00,
2013-01-10 17:00:00,62.9,57.0,30.27,South,180,0.0,0.0,81,0.00,,---,0.01,VWS V14.00,2013-01-10 22:00:00,
2013-01-10 17:10:00,62.3,57.1,30.27,South,180,0.0,0.0,83,0.00,,---,0.01,VWS V14.00,2013-01-10 22:10:00,
2013-01-10 17:20:00,61.6,57.0,30.27,South,180,0.0,0.0,85,0.00,,---,0.01,VWS V14.00,2013-01-10 22:20:00,
2013-01-10 17:30:00,61.1,56.9,30.27,South,180,0.0,0.0,86,0.00,,---,0.01,VWS V14.00,2013-01-10 22:30:00,
2013-01-10 17:40:00,60.5,56.6,30.26,SW,235,0.0,4.0,87,0.00,,---,0.01,VWS V14.00,2013-01-10 22:40:00,
2013-01-10 17:50:00,60.1,56.5,30.26,SW,235,0.0,0.0,88,0.00,,---,0.01,VWS V14.00,2013-01-10 22:50:00,
2013-01-10 18:00:00,59.7,56.2,30.25,SW,235,0.0,0.0,88,0.00,,---,0.01,VWS V14.00,2013-01-10 23:00:00,
2013-01-10 18:10:00,59.3,55.8,30.24,SW,234,0.0,1.0,88,0.00,,---,0.01,VWS V14.00,2013-01-10 23:10:00,
2013-01-10 18:20:00,58.9,55.7,30.24,SW,234,0.0,0.0,89,0.00,,---,0.01,VWS V14.00,2013-01-10 23:20:00,
2013-01-10 18:30:00,58.5,55.3,30.24,SW,234,0.0,1.0,89,0.00,,---,0.01,VWS V14.00,2013-01-10 23:30:00,
2013-01-10 18:40:00,58.1,54.9,30.24,SW,234,0.0,1.0,89,0.00,,---,0.01,VWS V14.00,2013-01-10 23:40:00,
2013-01-10 18:50:00,58.8,55.6,30.24,SW,228,0.0,5.0,89,0.00,,---,0.01,VWS V14.00,2013-01-10 23:50:00,
2013-01-10 19:00:00,60.4,56.2,30.24,SW,223,0.0,3.0,86,0.00,,---,0.01,VWS V14.00,2013-01-11 00:00:00,
2013-01-10 19:10:00,61.6,56.4,30.24,SSE,159,0.0,4.0,83,0.00,,---,0.01,VWS V14.00,2013-01-11 00:10:00,
2013-01-10 19:20:00,62.1,56.5,30.24,South,182,1.0,2.0,82,0.00,,---,0.01,VWS V14.00,2013-01-11 00:20:00,
2013-01-10 19:30:00,62.2,56.7,30.24,SSW,193,4.0,4.0,82,0.00,,---,0.01,VWS V14.00,2013-01-11 00:30:00,
2013-01-10 19:40:00,62.2,57.0,30.24,South,190,1.0,5.0,83,0.00,,---,0.01,VWS V14.00,2013-01-11 00:40:00,
2013-01-10 19:50:00,62.3,57.7,30.24,SSE,156,4.0,14.0,85,0.00,,---,0.01,VWS V14.00,2013-01-11 00:50:00,
2013-01-10 20:00:00,61.8,57.6,30.25,SSW,202,5.0,9.0,86,0.00,,---,0.01,VWS V14.00,2013-01-11 01:00:00,
2013-01-10 20:10:00,62.0,58.1,30.24,SSE,167,9.0,12.0,87,0.00,,---,0.01,VWS V14.00,2013-01-11 01:10:00,
2013-01-10 20:20:00,61.9,58.0,30.23,SW,218,1.0,11.0,87,0.00,,---,0.01,VWS V14.00,2013-01-11 01:20:00,
2013-01-10 20:30:00,61.7,57.8,30.22,WNW,295,0.0,11.0,87,0.00,,---,0.01,VWS V14.00,2013-01-11 01:30:00,
2013-01-10 20:40:00,61.4,57.5,30.22,WSW,239,0.0,4.0,87,0.00,,---,0.01,VWS V14.00,2013-01-11 01:40:00,
2013-01-10 20:50:00,61.3,57.4,30.22,SE,134,1.0,6.0,87,0.00,,---,0.01,VWS V14.00,2013-01-11 01:50:00,
2013-01-10 21:00:00,61.4,57.2,30.22,SE,145,0.0,5.0,86,0.00,,---,0.01,VWS V14.00,2013-01-11 02:00:00,
2013-01-10 21:10:00,61.5,57.0,30.21,SE,137,3.0,6.0,85,0.00,,---,0.01,VWS V14.00,2013-01-11 02:10:00,
2013-01-10 21:20:00,61.8,56.9,30.20,South,184,0.0,6.0,84,0.00,,---,0.01,VWS V14.00,2013-01-11 02:20:00,
2013-01-10 21:30:00,62.2,56.7,30.19,SW,224,1.0,10.0,82,0.00,,---,0.01,VWS V14.00,2013-01-11 02:30:00,
2013-01-10 21:40:00,62.7,57.1,30.19,SSW,202,5.0,12.0,82,0.00,,---,0.01,VWS V14.00,2013-01-11 02:40:00,
2013-01-10 21:50:00,63.1,57.5,30.19,South,173,1.0,11.0,82,0.00,,---,0.01,VWS V14.00,2013-01-11 02:50:00,
2013-01-10 22:00:00,63.2,57.6,30.18,South,183,5.0,12.0,82,0.00,,---,0.01,VWS V14.00,2013-01-11 03:00:00,
2013-01-10 22:10:00,63.1,57.9,30.18,SSE,164,9.0,11.0,83,0.00,,---,0.01,VWS V14.00,2013-01-11 03:10:00,
2013-01-10 22:20:00,63.2,58.0,30.17,SSW,192,4.0,11.0,83,0.00,,---,0.01,VWS V14.00,2013-01-11 03:20:00,
2013-01-10 22:30:00,63.2,58.0,30.16,SE,140,2.0,10.0,83,0.00,,---,0.01,VWS V14.00,2013-01-11 03:30:00,
2013-01-10 22:40:00,63.2,58.0,30.14,SE,140,0.0,12.0,83,0.00,,---,0.01,VWS V14.00,2013-01-11 03:40:00,
2013-01-10 22:50:00,63.2,58.3,30.15,South,169,4.0,13.0,84,0.00,,---,0.01,VWS V14.00,2013-01-11 03:50:00,
2013-01-10 23:00:00,63.3,58.4,30.15,South,175,4.0,15.0,84,0.00,,---,0.00,VWS V14.00,2013-01-11 04:00:00,
2013-01-10 23:10:00,63.3,58.7,30.15,South,169,2.0,12.0,85,0.00,,---,0.00,VWS V14.00,2013-01-11 04:10:00,
2013-01-10 23:20:00,63.2,58.6,30.17,NW,325,9.0,11.0,85,0.00,,---,0.00,VWS V14.00,2013-01-11 04:20:00,
2013-01-10 23:30:00,63.1,58.8,30.16,SW,227,6.0,12.0,86,0.00,,---,0.00,VWS V14.00,2013-01-11 04:30:00,
2013-01-10 23:40:00,62.9,58.7,30.15,South,171,6.0,15.0,86,0.00,,---,0.00,VWS V14.00,2013-01-11 04:40:00,
2013-01-10 23:50:00,62.6,58.7,30.14,South,171,5.0,14.0,87,0.00,,---,0.00,VWS V14.00,2013-01-11 04:50:00,